Time;durP1;ratioP1;P1;durP2;ratioP2;P2;SDS_P1;SDS_P2;PMS_P1;PMS_P2;Temp;Humidity;BMP_temperature;BMP_pressure;BME280_temperature;BME280_humidity;BME280_pressure;Samples;Min_cycle;Max_cycle;Signal;HPM_P1;HPM_P2
2021/05/02 00:01:15;;;;;;;14.73;10.55;;;10.80;99.90;;;11.09;64.12;101531.31;5075520;28;20050;-77
2021/05/02 00:03:43;;;;;;;18.33;11.05;;;10.80;99.90;;;11.18;63.69;101531.38;5075631;28;20448;-76
2021/05/02 00:06:11;;;;;;;16.48;11.52;;;10.90;99.90;;;11.17;63.95;101545.47;5075365;28;20070;-77
2021/05/02 00:08:40;;;;;;;13.35;10.80;;;10.90;99.90;;;11.15;63.67;101520.75;5075496;28;20190;-77
2021/05/02 00:11:09;;;;;;;16.20;9.93;;;11.00;99.90;;;11.14;63.61;101532.25;5075203;28;20067;-76
2021/05/02 00:13:39;;;;;;;15.45;10.98;;;10.90;99.90;;;11.21;62.98;101559.63;5075392;28;20691;-76
2021/05/02 00:16:07;;;;;;;17.02;10.07;;;10.90;99.90;;;11.13;63.35;101530.47;5075479;28;20101;-76
2021/05/02 00:18:36;;;;;;;16.88;10.63;;;10.90;99.90;;;10.85;63.73;101537.41;5075132;28;20436;-76
2021/05/02 00:21:08;;;;;;;13.05;10.10;;;10.70;99.90;;;10.99;63.53;101526.00;5075381;28;20063;-76
2021/05/02 00:23:39;;;;;;;13.50;9.77;;;10.80;99.90;;;11.03;63.50;101536.63;5075030;28;20053;-76
2021/05/02 00:26:08;;;;;;;13.57;10.38;;;10.80;99.90;;;11.04;63.37;101545.41;5075092;28;20061;-76
2021/05/02 00:28:38;;;;;;;15.45;10.15;;;10.80;99.90;;;11.03;63.05;101544.56;5074690;28;20048;-76
2021/05/02 00:31:08;;;;;;;15.60;9.55;;;10.80;99.90;;;10.85;63.67;101534.78;5075310;28;20040;-76
2021/05/02 00:33:36;;;;;;;14.93;10.13;;;10.60;99.90;;;10.85;63.30;101542.72;5075089;28;20453;-76
2021/05/02 00:36:05;;;;;;;12.27;9.27;;;10.60;99.90;;;10.75;63.33;101537.34;5074892;28;20052;-75
2021/05/02 00:38:36;;;;;;;14.65;9.68;;;10.40;99.90;;;10.62;63.15;101523.19;5075115;28;20131;-77
2021/05/02 00:41:08;;;;;;;9.85;8.65;;;10.50;99.90;;;10.36;63.76;101502.72;5074766;28;20400;-76
2021/05/02 00:43:44;;;;;;;12.27;8.52;;;10.30;99.90;;;10.73;63.40;101540.00;5074971;28;20386;-76
2021/05/02 00:46:17;;;;;;;10.00;7.93;;;10.40;99.90;;;10.82;62.93;101547.97;5073336;28;20052;-76
2021/05/02 00:48:53;;;;;;;13.10;8.65;;;10.50;99.90;;;10.72;62.56;101540.00;5074801;28;20066;-76
2021/05/02 00:51:23;;;;;;;10.80;7.82;;;10.40;99.90;;;10.79;62.76;101547.97;5074483;28;20056;-76
2021/05/02 00:54:21;;;;;;;11.27;7.30;;;10.50;99.90;;;10.72;62.31;101547.94;5074731;28;20106;-76
2021/05/02 00:57:00;;;;;;;13.10;8.90;;;10.40;99.90;;;10.68;62.10;101535.56;5050894;28;20303;-76
2021/05/02 00:59:43;;;;;;;14.23;8.63;;;10.40;99.90;;;10.60;62.08;101534.63;5074708;28;20094;-76
2021/05/02 01:02:13;;;;;;;13.27;8.70;;;10.40;99.90;;;10.64;61.82;101550.53;5073250;28;20048;-76
2021/05/02 01:04:44;;;;;;;10.93;8.30;;;10.30;99.90;;;10.60;61.74;101554.03;5074499;28;20091;-76
2021/05/02 01:07:17;;;;;;;13.82;7.60;;;10.30;99.90;;;10.57;61.48;101547.81;5074219;28;20489;-76
2021/05/02 01:09:45;;;;;;;16.08;9.30;;;10.30;99.90;;;10.55;61.56;101552.22;5074398;28;20055;-76
2021/05/02 01:12:18;;;;;;;11.70;8.20;;;10.20;99.90;;;10.55;61.45;101552.22;5074396;28;20048;-77
2021/05/02 01:14:54;;;;;;;9.43;7.45;;;10.20;99.90;;;10.55;61.35;101546.94;5074275;28;20048;-77
2021/05/02 01:17:25;;;;;;;20.48;8.32;;;10.20;99.90;;;10.39;61.28;101537.13;5073000;28;20498;-77
2021/05/02 01:19:54;;;;;;;10.30;8.35;;;10.10;99.90;;;10.45;61.27;101553.03;5074284;28;20087;-77
2021/05/02 01:22:22;;;;;;;11.63;8.25;;;10.20;99.90;;;10.43;61.36;101550.34;5074155;28;20040;-76
2021/05/02 01:24:53;;;;;;;12.75;8.15;;;10.10;99.90;;;10.44;61.32;101553.91;5073858;28;20060;-76
2021/05/02 01:27:27;;;;;;;10.90;7.28;;;10.10;99.90;;;10.44;61.16;101551.25;5074125;28;20044;-76
2021/05/02 01:29:56;;;;;;;9.52;7.85;;;10.10;99.90;;;10.40;61.44;101550.34;5072780;28;20060;-77
2021/05/02 01:32:25;;;;;;;9.63;6.93;;;10.10;99.90;;;10.34;61.16;101554.69;5073756;28;20116;-76
2021/05/02 01:34:54;;;;;;;9.23;7.15;;;10.00;99.90;;;10.36;61.49;101545.91;5074234;28;20037;-76
2021/05/02 01:37:22;;;;;;;10.15;7.50;;;10.10;99.90;;;10.36;61.32;101552.94;5073843;28;20371;-76
2021/05/02 01:39:51;;;;;;;10.55;7.13;;;10.00;99.90;;;10.27;61.53;101531.75;5073069;28;20047;-77
2021/05/02 01:42:19;;;;;;;11.43;7.47;;;10.10;99.90;;;10.24;61.78;101568.75;5074147;28;20082;-77
2021/05/02 01:44:47;;;;;;;11.60;6.38;;;10.00;99.90;;;10.28;61.86;101554.69;5073425;28;20401;-76
2021/05/02 01:47:18;;;;;;;13.40;7.28;;;9.90;99.90;;;10.16;62.31;101560.75;5074228;28;20037;-77
2021/05/02 01:49:51;;;;;;;11.23;7.78;;;9.90;99.90;;;10.15;62.49;101558.06;5073712;28;20051;-76
2021/05/02 01:52:20;;;;;;;9.93;7.07;;;9.80;99.90;;;10.10;62.77;101563.34;5073693;28;20131;-77
2021/05/02 01:54:48;;;;;;;10.15;7.72;;;9.80;99.90;;;9.99;63.09;101564.94;5074163;28;20052;-77
2021/05/02 01:57:21;;;;;;;12.25;7.40;;;9.60;99.90;;;9.93;63.14;101564.88;5074385;28;20395;-77
2021/05/02 01:59:52;;;;;;;10.05;8.15;;;9.60;99.90;;;9.84;63.86;101568.34;5074343;28;20074;-76
2021/05/02 02:02:20;;;;;;;12.82;7.72;;;9.50;99.90;;;9.82;64.06;101561.25;5073561;28;20113;-76
2021/05/02 02:04:55;;;;;;;9.95;7.82;;;9.40;99.90;;;9.78;65.06;101557.72;5073494;28;20058;-76
2021/05/02 02:07:24;;;;;;;12.57;8.30;;;9.50;99.90;;;9.58;65.36;101546.06;5072311;28;20070;-76
2021/05/02 02:09:52;;;;;;;12.05;8.40;;;9.40;99.90;;;9.68;65.14;101568.16;5073261;28;20041;-77
2021/05/02 02:12:21;;;;;;;9.88;7.60;;;9.30;99.90;;;9.62;65.51;101562.84;5073903;28;20044;-76
2021/05/02 02:14:51;;;;;;;11.15;8.07;;;9.30;99.90;;;9.63;64.83;101570.78;5073745;28;20102;-76
2021/05/02 02:17:20;;;;;;;12.27;8.27;;;9.30;99.90;;;9.58;65.20;101572.47;5073342;28;20094;-77
2021/05/02 02:19:48;;;;;;;13.85;8.52;;;9.20;99.90;;;9.58;65.37;101574.25;5073176;28;20044;-77
2021/05/02 02:22:17;;;;;;;11.20;8.30;;;9.20;99.90;;;9.51;65.20;101578.56;5073184;28;20041;-76
2021/05/02 02:24:47;;;;;;;11.05;8.13;;;9.20;99.90;;;9.47;65.71;101575.84;5073066;28;20040;-76
2021/05/02 02:27:15;;;;;;;12.07;8.23;;;9.10;99.90;;;9.44;65.83;101575.84;5073069;28;20040;-76
2021/05/02 02:29:46;;;;;;;13.00;9.05;;;9.20;99.90;;;9.36;65.45;101564.28;5072881;28;20106;-77
2021/05/02 02:32:16;;;;;;;14.63;8.70;;;9.20;99.90;;;8.93;65.65;101486.38;5073066;28;20056;-77
2021/05/02 02:34:46;;;;;;;11.48;8.75;;;9.20;99.90;;;9.53;65.66;101587.38;5073092;28;20055;-76
2021/05/02 02:37:17;;;;;;;13.02;8.10;;;9.20;99.90;;;9.39;65.65;101557.28;5073032;28;20043;-77
2021/05/02 02:39:47;;;;;;;;;;;9.20;99.90;;;9.45;65.50;101581.13;5073384;28;20501;-77
2021/05/02 02:42:16;;;;;;;10.93;7.35;;;9.20;99.90;;;9.35;65.47;101581.00;5071746;28;19927;-77
2021/05/02 02:44:49;;;;;;;12.18;7.93;;;9.10;99.90;;;9.23;65.52;101562.38;5073018;28;20068;-77
2021/05/02 02:47:20;;;;;;;12.45;8.60;;;9.00;99.90;;;9.36;65.74;101585.41;5073180;28;20059;-76
2021/05/02 02:49:50;;;;;;;8.65;7.50;;;9.00;99.90;;;9.27;65.54;101562.41;5072799;28;20049;-77
2021/05/02 02:52:21;;;;;;;13.07;8.48;;;9.00;99.90;;;9.40;65.67;101585.47;5076091;28;20048;-77
2021/05/02 02:55:05;;;;;;;10.98;7.43;;;9.10;99.90;;;9.33;65.17;101607.38;5079551;28;20432;-77
2021/05/02 02:57:43;;;;;;;8.18;7.38;;;9.00;99.90;;;9.33;65.34;101588.03;5078856;28;20063;-77
2021/05/02 03:00:13;;;;;;;12.52;7.80;;;9.00;99.90;;;9.21;65.90;101587.88;5079455;28;20079;-77
2021/05/02 03:02:51;;;;;;;12.13;7.40;;;8.90;99.90;;;9.22;66.00;101595.81;5079468;28;20045;-77
2021/05/02 03:05:21;;;;;;;12.23;7.82;;;8.90;99.90;;;8.58;66.54;101488.56;5079105;28;20044;-77
2021/05/02 03:07:50;;;;;;;11.40;7.78;;;8.90;99.90;;;9.00;66.76;101575.31;5079381;28;20143;-77
2021/05/02 03:10:18;;;;;;;10.30;7.25;;;8.70;99.90;;;9.12;66.52;101599.19;5079139;28;20509;-77
2021/05/02 03:12:45;;;;;;;13.05;7.25;;;8.70;99.90;;;9.10;67.26;101596.53;5078859;28;20433;-76
2021/05/02 03:15:14;;;;;;;10.70;6.70;;;8.70;99.90;;;9.20;66.55;101600.19;5079216;28;20040;-76
2021/05/02 03:17:47;;;;;;;11.32;7.13;;;8.80;99.90;;;9.23;66.39;101601.97;5079188;28;20382;-77
2021/05/02 03:20:16;;;;;;;9.35;6.05;;;8.90;99.90;;;9.12;66.01;101596.53;5079207;28;20048;-76
2021/05/02 03:22:50;;;;;;;11.48;6.90;;;8.80;99.90;;;9.22;66.09;101597.56;5079190;28;20066;-77
2021/05/02 03:25:23;;;;;;;15.57;6.72;;;8.80;99.90;;;9.27;66.14;101599.38;5078964;28;20048;-77
2021/05/02 03:27:57;;;;;;;11.10;6.72;;;8.90;99.90;;;9.32;66.31;101608.25;5078912;28;20048;-76
2021/05/02 03:30:27;;;;;;;8.82;6.55;;;9.00;99.90;;;9.26;65.32;101602.91;5079113;28;20045;-77
2021/05/02 03:32:57;;;;;;;13.95;7.22;;;9.00;99.90;;;9.22;65.87;101610.75;5079441;28;20044;-77
2021/05/02 03:35:27;;;;;;;9.32;6.50;;;8.90;99.90;;;9.04;65.83;101579.72;5079144;28;20125;-76
2021/05/02 03:38:07;;;;;;;12.27;6.65;;;8.90;99.90;;;9.20;65.35;101601.91;5078792;28;20502;-77
2021/05/02 03:40:35;;;;;;;11.88;6.25;;;8.90;99.90;;;9.23;65.52;101602.88;5079140;28;20067;-76
2021/05/02 03:43:03;;;;;;;12.20;6.25;;;8.90;99.90;;;9.24;65.70;101604.63;5078860;28;20127;-77
2021/05/02 03:45:31;;;;;;;9.85;6.50;;;8.90;99.90;;;9.25;65.75;101611.69;5078978;28;20060;-76
2021/05/02 03:47:58;;;;;;;9.73;5.88;;;8.90;99.90;;;9.25;65.57;101611.69;5078994;28;20036;-77
2021/05/02 03:50:26;;;;;;;9.32;6.72;;;8.90;99.90;;;9.13;65.88;101615.91;5078602;28;20040;-76
2021/05/02 03:52:53;;;;;;;7.80;5.90;;;8.90;99.90;;;9.19;65.90;101619.53;5078601;28;20487;-77
2021/05/02 03:55:21;;;;;;;8.57;6.15;;;8.80;99.90;;;9.19;65.54;101622.16;5078871;28;20097;-76
2021/05/02 03:57:48;;;;;;;10.82;6.10;;;8.80;99.90;;;9.21;65.87;101623.09;5078552;28;20482;-77
2021/05/02 04:00:17;;;;;;;11.10;6.88;;;8.90;99.90;;;9.20;65.49;101623.03;5078836;28;20055;-76
2021/05/02 04:02:45;;;;;;;14.10;6.53;;;8.90;99.90;;;9.24;65.31;101632.78;5077285;28;20079;-77
2021/05/02 04:05:13;;;;;;;15.98;7.22;;;8.90;99.90;;;9.19;65.41;101632.72;5075629;28;20543;-76
2021/05/02 04:07:40;;;;;;;9.02;6.25;;;8.90;99.90;;;9.20;66.31;101633.59;5075614;28;20037;-77
2021/05/02 04:10:09;;;;;;;9.50;6.32;;;8.90;99.90;;;9.06;66.75;101639.56;5075472;28;20131;-77
2021/05/02 04:12:36;;;;;;;10.10;6.35;;;8.80;99.90;;;9.02;67.30;101621.03;5075468;28;20048;-76
2021/05/02 04:15:05;;;;;;;11.10;6.93;;;8.80;99.90;;;9.07;67.05;101633.44;5075059;28;20056;-76
2021/05/02 04:17:32;;;;;;;14.32;6.72;;;8.70;99.90;;;9.01;67.50;101643.91;5075386;28;20124;-76
2021/05/02 04:20:01;;;;;;;11.90;6.70;;;8.70;99.90;;;9.07;67.92;101641.38;5075373;28;20052;-77
2021/05/02 04:22:30;;;;;;;10.70;6.63;;;8.70;99.90;;;9.15;67.31;101640.56;5075043;28;20097;-77
2021/05/02 04:24:58;;;;;;;8.67;6.70;;;8.80;99.90;;;9.13;67.05;101647.59;5075337;28;20044;-76
2021/05/02 04:27:25;;;;;;;10.13;6.30;;;8.80;99.90;;;9.21;67.05;101646.84;5075211;28;20041;-77
2021/05/02 04:29:53;;;;;;;6.97;5.90;;;8.90;99.90;;;9.14;66.85;101650.22;5075079;28;20131;-76
2021/05/02 04:32:20;;;;;;;9.77;6.65;;;8.90;99.90;;;9.34;65.99;101647.88;5074791;28;20485;-77
2021/05/02 04:34:48;;;;;;;12.32;6.50;;;9.00;99.90;;;9.44;66.02;101655.03;5074801;28;20052;-76
2021/05/02 04:37:16;;;;;;;9.05;6.38;;;9.10;99.90;;;9.62;65.61;101655.28;5073644;28;20136;-76
2021/05/02 04:39:43;;;;;;;12.27;6.40;;;9.30;99.90;;;9.41;65.57;101661.16;5074959;28;20498;-76
2021/05/02 04:42:11;;;;;;;10.32;5.63;;;9.10;99.90;;;9.44;64.69;101655.94;5074808;28;20446;-76
2021/05/02 04:44:39;;;;;;;13.50;6.22;;;9.10;99.90;;;9.49;64.59;101658.63;5073479;28;20085;-76
2021/05/02 04:47:06;;;;;;;6.28;5.25;;;9.10;99.90;;;9.41;65.03;101665.56;5074788;28;20067;-76
2021/05/02 04:49:34;;;;;;;8.90;6.18;;;9.10;99.90;;;9.51;64.72;101665.69;5074728;28;20083;-76
2021/05/02 04:52:02;;;;;;;7.47;5.88;;;9.20;99.90;;;9.49;64.13;101669.19;5074717;28;20083;-76
2021/05/02 04:54:30;;;;;;;8.68;5.50;;;9.20;99.90;;;9.42;64.38;101668.22;5074719;28;20249;-76
2021/05/02 04:56:57;;;;;;;10.18;6.30;;;9.10;99.90;;;9.43;64.88;101672.63;5074726;28;20114;-76
2021/05/02 04:59:25;;;;;;;8.32;6.10;;;9.10;99.90;;;9.46;65.33;101672.69;5074687;28;20052;-76
2021/05/02 05:01:52;;;;;;;9.65;5.93;;;9.10;99.90;;;9.53;65.24;101682.44;5074593;28;20132;-76
2021/05/02 05:04:20;;;;;;;6.50;5.65;;;9.20;99.90;;;9.54;65.74;101676.28;5074508;28;20476;-76
2021/05/02 05:06:47;;;;;;;9.93;6.57;;;9.20;99.90;;;9.55;65.81;101678.09;5074424;28;20118;-76
2021/05/02 05:09:15;;;;;;;9.15;6.50;;;9.20;99.90;;;9.50;66.03;101677.16;5074022;28;20587;-76
2021/05/02 05:11:43;;;;;;;9.73;6.07;;;9.20;99.90;;;9.67;65.61;101686.16;5074081;28;20049;-76
2021/05/02 05:14:13;;;;;;;8.65;5.55;;;9.40;99.90;;;9.71;65.45;101681.81;5073878;28;20045;-76
2021/05/02 05:16:40;;;;;;;10.43;6.15;;;9.40;99.90;;;9.62;65.31;101695.75;5073373;28;20097;-76
2021/05/02 05:19:08;;;;;;;12.18;6.15;;;9.40;99.90;;;9.64;65.17;101694.03;5074267;28;20127;-76
2021/05/02 05:21:35;;;;;;;11.27;6.07;;;9.40;99.90;;;9.73;64.55;101691.53;5074233;28;20041;-76
2021/05/02 05:24:03;;;;;;;8.70;5.93;;;9.50;99.90;;;9.82;64.18;101696.00;5074180;28;20052;-76
2021/05/02 05:26:30;;;;;;;8.40;5.70;;;9.50;99.90;;;10.12;64.16;101699.06;5074037;28;20137;-76
2021/05/02 05:28:59;;;;;;;9.65;5.45;;;9.80;99.90;;;10.18;63.29;101695.59;5073908;28;20040;-76
2021/05/02 05:31:26;;;;;;;12.48;5.95;;;9.90;99.90;;;10.28;62.82;101685.09;5072716;28;20063;-76
2021/05/02 05:33:53;;;;;;;9.38;5.20;;;10.00;99.90;;;10.16;62.41;101699.97;5073640;28;20387;-77
2021/05/02 05:36:21;;;;;;;9.82;5.55;;;10.00;99.90;;;10.30;62.35;101711.59;5073840;28;20086;-76
2021/05/02 05:38:48;;;;;;;10.02;5.90;;;10.00;99.90;;;10.51;61.70;101702.06;5073523;28;20051;-76
2021/05/02 05:41:16;;;;;;;10.15;6.10;;;10.20;99.90;;;10.47;61.74;101710.84;5072220;28;20048;-76
2021/05/02 05:43:43;;;;;;;10.32;5.95;;;10.30;99.90;;;10.36;62.12;101714.25;5073843;28;20054;-75
2021/05/02 05:46:13;;;;;;;9.75;5.65;;;10.20;99.90;;;10.30;61.61;101714.22;5073577;28;20044;-76
2021/05/02 05:48:41;;;;;;;8.43;5.57;;;10.10;99.90;;;10.34;61.89;101721.28;5073333;28;20524;-75
2021/05/02 05:51:09;;;;;;;10.05;6.15;;;10.10;99.90;;;10.22;62.30;101722.06;5073555;28;20097;-75
2021/05/02 05:53:37;;;;;;;10.68;6.00;;;10.00;99.90;;;10.57;62.31;101722.41;5073483;28;20420;-75
2021/05/02 05:56:05;;;;;;;6.55;5.38;;;10.20;99.90;;;10.56;61.93;101718.88;5073489;28;20107;-75
2021/05/02 05:58:32;;;;;;;7.55;5.80;;;10.30;99.90;;;10.50;62.42;101725.88;5073325;28;20052;-75
2021/05/02 06:01:00;;;;;;;10.23;5.93;;;10.30;99.90;;;10.63;61.79;101725.09;5073710;28;20075;-76
2021/05/02 06:03:28;;;;;;;13.35;5.75;;;10.30;99.90;;;10.66;61.07;101728.69;5073949;28;20444;-75
2021/05/02 06:05:55;;;;;;;10.23;5.68;;;10.40;99.90;;;10.74;60.93;101731.41;5073587;28;20099;-75
2021/05/02 06:08:23;;;;;;;8.73;5.78;;;10.50;99.90;;;10.85;61.52;101730.63;5073274;28;20489;-75
2021/05/02 06:10:51;;;;;;;8.35;5.22;;;10.60;99.90;;;11.04;60.45;101726.34;5072167;28;20048;-75
2021/05/02 06:13:19;;;;;;;8.15;5.35;;;10.80;99.90;;;10.50;59.78;101741.75;5073041;28;20449;-75
2021/05/02 06:15:46;;;;;;;10.18;5.85;;;10.50;99.90;;;10.51;60.70;101733.81;5073163;28;20033;-75
2021/05/02 06:18:14;;;;;;;6.35;4.90;;;10.30;99.90;;;10.53;60.07;101739.16;5072901;28;20510;-75
2021/05/02 06:20:42;;;;;;;7.60;5.68;;;10.30;99.90;;;10.41;60.01;101737.25;5073192;28;20037;-74
2021/05/02 06:23:10;;;;;;;8.82;5.60;;;10.30;99.90;;;10.43;59.55;101739.91;5073212;28;20093;-75
2021/05/02 06:25:37;;;;;;;8.48;5.50;;;10.30;99.90;;;10.50;58.95;101739.09;5072691;28;20040;-75
2021/05/02 06:28:05;;;;;;;8.38;5.05;;;10.20;99.90;;;10.49;59.09;101747.91;5072667;28;20490;-75
2021/05/02 06:30:32;;;;;;;6.78;4.93;;;10.30;99.90;;;10.35;59.77;101741.59;5072963;28;20094;-75
2021/05/02 06:33:01;;;;;;;7.03;5.05;;;10.20;99.90;;;10.08;60.16;101643.44;5072985;28;20053;-75
2021/05/02 06:35:29;;;;;;;8.82;4.55;;;10.40;99.90;;;10.55;60.65;101742.69;5073005;28;20041;-75
2021/05/02 06:37:58;;;;;;;7.15;5.25;;;10.40;99.90;;;10.62;59.75;101742.75;5072926;28;20056;-76
2021/05/02 06:40:25;;;;;;;8.35;5.47;;;10.40;99.90;;;10.59;59.60;101737.41;5072662;28;20041;-76
2021/05/02 06:42:52;;;;;;;7.85;5.43;;;10.40;99.90;;;10.73;60.05;101751.66;5072723;28;20052;-73
2021/05/02 06:45:20;;;;;;;8.85;5.28;;;10.50;99.90;;;10.93;58.67;101743.00;5072728;28;20044;-73
2021/05/02 06:47:48;;;;;;;8.30;5.05;;;10.70;99.90;;;10.72;58.18;101738.44;5072336;28;20493;-73
2021/05/02 06:50:15;;;;;;;10.45;5.28;;;10.60;99.90;;;10.47;58.75;101750.53;5072495;28;20040;-74
2021/05/02 06:52:42;;;;;;;7.50;5.75;;;10.40;99.90;;;10.67;59.46;101753.38;5072218;28;20056;-73
2021/05/02 06:55:12;;;;;;;6.80;5.43;;;10.40;99.90;;;10.76;59.00;101764.06;5072540;28;20053;-73
2021/05/02 06:57:39;;;;;;;10.20;5.28;;;10.50;99.90;;;10.93;58.53;101732.44;5072423;28;20056;-75
2021/05/02 07:00:08;;;;;;;13.10;6.00;;;10.80;99.90;;;11.03;58.35;101744.88;5072833;28;20059;-76
2021/05/02 07:02:35;;;;;;;7.50;5.30;;;10.90;99.90;;;10.89;58.76;101750.06;5072711;28;20098;-75
2021/05/02 07:05:04;;;;;;;8.77;5.00;;;10.80;99.90;;;10.79;58.73;101746.44;5072890;28;20048;-75
2021/05/02 07:07:31;;;;;;;9.70;5.78;;;10.70;99.90;;;10.66;57.71;101756.91;5072608;28;20039;-76
2021/05/02 07:09:58;;;;;;;9.20;5.30;;;10.50;99.90;;;10.35;59.22;101753.06;5072491;28;20044;-75
2021/05/02 07:12:27;;;;;;;5.60;5.10;;;10.30;99.90;;;10.51;59.23;101754.13;5072533;28;20123;-75
2021/05/02 07:14:54;;;;;;;5.47;4.75;;;10.30;99.90;;;10.54;59.62;101755.03;5072203;28;20048;-75
2021/05/02 07:17:22;;;;;;;7.68;4.82;;;10.30;99.90;;;10.60;59.28;101768.31;5072534;28;20040;-75
2021/05/02 07:19:51;;;;;;;5.95;5.18;;;10.40;99.90;;;10.68;57.11;101766.59;5072515;28;20036;-75
2021/05/02 07:22:19;;;;;;;8.35;5.22;;;10.50;99.90;;;10.75;57.77;101770.19;5072492;28;20070;-75
2021/05/02 07:24:50;;;;;;;5.97;4.55;;;10.50;99.90;;;10.66;57.80;101778.06;5072717;28;20053;-75
2021/05/02 07:27:17;;;;;;;;;;;10.50;99.90;;;10.66;57.49;101763.09;5072966;28;20041;-75
2021/05/02 07:29:46;;;;;;;9.57;5.55;;;10.50;99.90;;;10.66;57.92;101778.97;5072365;28;19964;-76
2021/05/02 07:32:14;;;;;;;8.40;4.93;;;10.50;99.90;;;10.93;57.59;101783.63;5072045;28;20413;-76
2021/05/02 07:34:41;;;;;;;6.78;5.25;;;10.70;99.90;;;11.16;56.50;101781.16;5072393;28;20044;-75
2021/05/02 07:37:10;;;;;;;6.00;5.15;;;11.00;99.90;;;11.20;56.15;101783.84;5071986;28;20040;-75
2021/05/02 07:39:40;;;;;;;7.65;4.85;;;11.00;99.90;;;11.36;56.55;101756.56;5075214;28;20051;-75
2021/05/02 07:42:08;;;;;;;10.88;5.13;;;11.20;99.90;;;11.28;57.12;101752.13;5075904;28;20041;-75
2021/05/02 07:44:35;;;;;;;7.95;5.00;;;11.30;99.90;;;11.27;57.43;101742.38;5076098;28;20432;-75
2021/05/02 07:47:03;;;;;;;7.82;5.25;;;11.30;99.90;;;11.40;57.11;101778.69;5075820;28;20177;-75
2021/05/02 07:49:32;;;;;;;8.00;5.15;;;11.20;99.90;;;11.41;57.76;101783.09;5075782;28;20044;-75
2021/05/02 07:51:59;;;;;;;7.10;4.85;;;11.20;99.90;;;11.07;57.19;101789.88;5075552;28;20047;-75
2021/05/02 07:54:28;;;;;;;7.70;4.65;;;11.00;99.90;;;11.26;57.24;101786.53;5075630;28;20052;-75
2021/05/02 07:56:56;;;;;;;10.27;5.32;;;11.00;99.90;;;11.23;56.61;101786.50;5075585;28;20072;-76
2021/05/02 07:59:24;;;;;;;5.03;4.53;;;11.10;99.90;;;11.25;55.94;101798.00;5075514;28;20105;-76
2021/05/02 08:01:51;;;;;;;6.38;4.97;;;11.00;99.90;;;11.32;55.98;101770.69;5075699;28;20132;-76
2021/05/02 08:04:19;;;;;;;7.07;5.57;;;11.20;99.90;;;11.27;55.23;101798.88;5075615;28;20440;-75
2021/05/02 08:06:47;;;;;;;5.82;4.97;;;11.10;99.90;;;11.02;55.36;101799.56;5075599;28;20048;-75
2021/05/02 08:09:14;;;;;;;5.18;4.68;;;11.00;99.90;;;11.34;54.93;101790.09;5075500;28;20040;-75
2021/05/02 08:11:41;;;;;;;7.28;4.90;;;11.00;99.90;;;11.67;55.23;101794.78;5075298;28;20533;-76
2021/05/02 08:14:09;;;;;;;5.55;4.85;;;11.40;99.90;;;11.79;55.23;101794.84;5075513;28;20040;-75
2021/05/02 08:16:36;;;;;;;10.70;5.47;;;11.60;99.90;;;11.69;55.07;101788.59;5075244;28;20137;-76
2021/05/02 08:19:04;;;;;;;8.15;5.65;;;11.60;99.90;;;11.42;55.51;101800.78;5075316;28;20052;-76
2021/05/02 08:21:33;;;;;;;10.75;5.75;;;11.40;99.90;;;11.34;56.34;101799.84;5075372;28;20044;-76
2021/05/02 08:24:00;;;;;;;6.03;5.40;;;11.20;99.90;;;11.35;55.18;101805.13;5090590;28;20053;-76
2021/05/02 08:26:28;;;;;;;5.43;4.93;;;11.20;99.90;;;11.28;55.44;101813.03;5075197;28;20051;-76
2021/05/02 08:28:55;;;;;;;8.23;6.32;;;11.10;99.90;;;11.05;56.50;101804.91;5075167;28;20037;-76
2021/05/02 08:31:23;;;;;;;6.35;5.75;;;11.00;99.90;;;10.97;57.44;101809.25;5074961;28;20134;-76
2021/05/02 08:33:50;;;;;;;8.30;5.93;;;10.80;99.90;;;10.63;60.41;101817.69;5074946;28;20079;-75
2021/05/02 08:36:18;;;;;;;10.05;5.75;;;10.60;99.90;;;10.63;62.32;101812.41;5075236;28;20071;-75
2021/05/02 08:38:46;;;;;;;7.60;5.45;;;10.50;99.90;;;10.79;62.34;101823.19;5075128;28;20044;-75
2021/05/02 08:41:14;;;;;;;8.00;5.80;;;10.50;99.90;;;10.88;61.26;101815.31;5075194;28;20456;-75
2021/05/02 08:43:42;;;;;;;9.68;6.03;;;10.70;99.90;;;11.16;61.02;101832.34;5075097;28;20041;-75
2021/05/02 08:46:09;;;;;;;8.43;5.40;;;10.90;99.90;;;11.07;59.17;101805.78;5074867;28;20044;-75
2021/05/02 08:48:37;;;;;;;6.35;5.07;;;10.90;99.90;;;11.26;58.55;101818.31;5074860;28;20070;-76
2021/05/02 08:51:05;;;;;;;6.63;5.20;;;11.10;99.90;;;11.25;59.06;101818.28;5074983;28;20123;-75
2021/05/02 08:53:32;;;;;;;5.78;5.38;;;11.00;99.90;;;10.92;58.19;101734.19;5074746;28;20052;-75
2021/05/02 08:56:03;;;;;;;7.10;5.03;;;11.20;99.90;;;11.24;56.88;101798.88;5074783;28;20052;-75
2021/05/02 08:58:31;;;;;;;7.00;5.45;;;11.20;99.90;;;11.26;56.56;101817.44;5074689;28;20068;-76
2021/05/02 09:01:00;;;;;;;6.30;5.68;;;11.10;99.90;;;11.18;56.47;101825.31;5074215;28;20086;-76
2021/05/02 09:03:42;;;;;;;8.07;4.85;;;11.00;99.90;;;11.40;57.14;101834.31;5089919;28;20048;-75
2021/05/02 09:06:19;;;;;;;8.77;5.05;;;11.10;99.90;;;11.50;56.74;101839.69;5073144;28;20522;-75
2021/05/02 09:08:50;;;;;;;7.15;5.07;;;11.30;99.90;;;11.52;55.50;101794.63;5074381;28;20053;-75
2021/05/02 09:11:32;;;;;;;8.07;5.45;;;11.50;99.90;;;11.89;54.63;101841.75;5074003;28;20041;-75
2021/05/02 09:14:02;;;;;;;5.88;4.93;;;11.70;99.90;;;12.04;54.25;101833.00;5074174;28;20397;-75
2021/05/02 09:16:44;;;;;;;5.88;4.63;;;11.80;99.90;;;12.08;52.66;101821.53;5074011;28;20410;-76
2021/05/02 09:19:11;;;;;;;6.70;4.75;;;12.00;99.90;;;11.81;52.46;101832.00;5074298;28;20121;-76
2021/05/02 09:21:39;;;;;;;5.47;4.78;;;11.70;99.90;;;11.70;52.25;101830.16;5074073;28;20041;-75
2021/05/02 09:24:21;;;;;;;4.93;4.43;;;11.60;99.90;;;11.55;52.19;101832.66;5073722;28;20052;-76
2021/05/02 09:27:07;;;;;;;6.07;4.60;;;11.50;99.90;;;12.00;52.62;101832.06;5073947;28;20032;-76
2021/05/02 09:29:36;;;;;;;5.10;4.70;;;11.70;99.90;;;11.41;51.95;101715.13;5073796;28;20044;-76
2021/05/02 09:32:06;;;;;;;8.30;4.47;;;11.90;99.90;;;11.91;52.87;101836.44;5073958;28;20401;-76
2021/05/02 09:34:33;;;;;;;4.65;4.25;;;11.80;99.90;;;11.97;52.37;101825.88;5073674;28;20448;-76
2021/05/02 09:37:03;;;;;;;8.45;4.88;;;11.90;99.90;;;11.74;53.46;101813.41;5073531;28;20043;-76
2021/05/02 09:39:37;;;;;;;9.65;5.03;;;11.70;99.90;;;11.75;54.92;101823.09;5073604;28;20077;-76
2021/05/02 09:42:08;;;;;;;6.68;4.45;;;11.60;99.90;;;11.49;53.74;101824.69;5073967;28;20044;-76
2021/05/02 09:44:39;;;;;;;8.98;5.50;;;11.50;99.90;;;11.71;54.50;101828.41;5074695;28;20075;-76
2021/05/02 09:47:24;;;;;;;;;;;11.60;99.90;;;11.79;55.56;101830.19;5074233;28;20158;-76
2021/05/02 09:50:14;;;;;;;5.13;4.55;;;11.60;99.90;;;11.75;54.40;101849.59;5073825;28;20019;-76
2021/05/02 09:52:52;;;;;;;;;;;11.60;99.90;;;11.76;54.82;101850.50;5074234;28;20078;-76
2021/05/02 09:55:29;;;;;;;7.75;4.68;;;11.60;99.90;;;12.11;53.07;101840.09;5073836;28;20459;-76
2021/05/02 09:58:02;;;;;;;5.50;4.32;;;11.90;99.90;;;11.66;54.32;101831.00;5073620;28;20048;-75
2021/05/02 10:00:36;;;;;;;8.25;5.05;;;11.60;99.90;;;12.10;52.76;101846.28;5072958;28;20036;-76
2021/05/02 10:03:08;;;;;;;4.63;3.80;;;11.80;99.90;;;12.20;52.79;101848.97;5072952;28;20066;-76
2021/05/02 10:05:50;;;;;;;6.28;4.90;;;12.00;99.90;;;12.21;51.74;101841.91;5073281;28;20066;-75
2021/05/02 10:08:18;;;;;;;6.38;4.22;;;12.00;99.90;;;11.88;51.14;101847.94;5073388;28;20062;-75
2021/05/02 10:10:46;;;;;;;5.25;4.75;;;11.80;99.90;;;11.94;51.12;101847.97;5073102;28;20123;-75
2021/05/02 10:13:14;;;;;;;7.00;4.75;;;11.70;99.90;;;12.30;51.35;101849.91;5072739;28;20071;-75
2021/05/02 10:15:42;;;;;;;4.38;3.97;;;12.00;99.90;;;12.38;50.85;101833.16;5073410;28;20138;-75
2021/05/02 10:18:10;;;;;;;4.97;4.07;;;12.20;99.90;;;12.47;50.97;101845.53;5073093;28;20040;-75
2021/05/02 10:20:38;;;;;;;5.60;4.22;;;12.30;99.90;;;12.62;51.33;101829.66;5072957;28;20075;-75
2021/05/02 10:23:07;;;;;;;7.35;4.53;;;12.50;99.90;;;12.92;50.41;101853.66;5073102;28;20044;-75
2021/05/02 10:25:37;;;;;;;4.90;3.90;;;12.70;99.90;;;12.62;48.27;101851.78;5072838;28;20048;-75